sensor_id;sensor_type;location;lat;lon;timestamp;temperature;humidity
23744;DHT22;12052;53.478;10.182;2024-03-02T00:02:24;8.80;99.90
23744;DHT22;12052;53.478;10.182;2024-03-02T00:04:50;8.80;99.90
23744;DHT22;12052;53.478;10.182;2024-03-02T00:07:16;8.80;99.90
23744;DHT22;12052;53.478;10.182;2024-03-02T00:09:42;8.70;99.90
23744;DHT22;12052;53.478;10.182;2024-03-02T00:12:10;8.70;99.90
23744;DHT22;12052;53.478;10.182;2024-03-02T00:14:37;8.70;99.90
23744;DHT22;12052;53.478;10.182;2024-03-02T00:17:02;8.70;99.90
23744;DHT22;12052;53.478;10.182;2024-03-02T00:19:28;8.70;99.90
23744;DHT22;12052;53.478;10.182;2024-03-02T00:21:54;8.70;99.90
23744;DHT22;12052;53.478;10.182;2024-03-02T00:24:21;8.60;99.90
23744;DHT22;12052;53.478;10.182;2024-03-02T00:26:47;8.60;99.90
23744;DHT22;12052;53.478;10.182;2024-03-02T00:29:15;8.60;99.90
23744;DHT22;12052;53.478;10.182;2024-03-02T00:31:41;8.60;99.90
23744;DHT22;12052;53.478;10.182;2024-03-02T00:34:07;8.60;99.90
23744;DHT22;12052;53.478;10.182;2024-03-02T00:36:33;8.60;99.90
23744;DHT22;12052;53.478;10.182;2024-03-02T00:38:59;8.50;99.90
23744;DHT22;12052;53.478;10.182;2024-03-02T00:41:28;8.50;99.90
23744;DHT22;12052;53.478;10.182;2024-03-02T00:44:00;8.50;99.90
23744;DHT22;12052;53.478;10.182;2024-03-02T00:46:28;8.40;99.90
23744;DHT22;12052;53.478;10.182;2024-03-02T00:48:59;8.40;99.90
23744;DHT22;12052;53.478;10.182;2024-03-02T00:51:27;8.40;99.90
23744;DHT22;12052;53.478;10.182;2024-03-02T00:53:54;8.40;99.90
23744;DHT22;12052;53.478;10.182;2024-03-02T00:56:26;8.30;99.90
23744;DHT22;12052;53.478;10.182;2024-03-02T00:58:52;8.30;99.90
23744;DHT22;12052;53.478;10.182;2024-03-02T01:01:18;8.30;99.90
23744;DHT22;12052;53.478;10.182;2024-03-02T01:03:45;8.30;99.90
23744;DHT22;12052;53.478;10.182;2024-03-02T01:06:11;8.30;99.90
23744;DHT22;12052;53.478;10.182;2024-03-02T01:08:37;8.30;99.90
23744;DHT22;12052;53.478;10.182;2024-03-02T01:11:03;8.30;99.90
23744;DHT22;12052;53.478;10.182;2024-03-02T01:13:30;8.30;99.90
23744;DHT22;12052;53.478;10.182;2024-03-02T01:15:56;8.20;99.90
23744;DHT22;12052;53.478;10.182;2024-03-02T01:18:21;8.20;99.90
23744;DHT22;12052;53.478;10.182;2024-03-02T01:20:47;8.20;99.90
23744;DHT22;12052;53.478;10.182;2024-03-02T01:23:13;8.20;99.90
23744;DHT22;12052;53.478;10.182;2024-03-02T01:25:40;8.20;99.90
23744;DHT22;12052;53.478;10.182;2024-03-02T01:28:06;8.20;99.90
23744;DHT22;12052;53.478;10.182;2024-03-02T01:30:34;8.10;99.90
23744;DHT22;12052;53.478;10.182;2024-03-02T01:33:00;8.10;99.90
23744;DHT22;12052;53.478;10.182;2024-03-02T01:35:27;8.10;99.90
23744;DHT22;12052;53.478;10.182;2024-03-02T01:37:53;8.10;99.90
23744;DHT22;12052;53.478;10.182;2024-03-02T01:40:19;8.10;99.90
23744;DHT22;12052;53.478;10.182;2024-03-02T01:42:44;8.10;99.90
23744;DHT22;12052;53.478;10.182;2024-03-02T01:45:10;8.10;99.90
23744;DHT22;12052;53.478;10.182;2024-03-02T01:47:36;8.10;99.90
23744;DHT22;12052;53.478;10.182;2024-03-02T01:50:02;8.10;99.90
23744;DHT22;12052;53.478;10.182;2024-03-02T01:52:27;8.10;99.90
23744;DHT22;12052;53.478;10.182;2024-03-02T01:54:53;8.10;99.90
23744;DHT22;12052;53.478;10.182;2024-03-02T01:57:19;8.10;99.90
23744;DHT22;12052;53.478;10.182;2024-03-02T01:59:46;8.10;99.90
23744;DHT22;12052;53.478;10.182;2024-03-02T02:02:14;8.00;99.90
23744;DHT22;12052;53.478;10.182;2024-03-02T02:04:39;8.10;99.90
23744;DHT22;12052;53.478;10.182;2024-03-02T02:07:05;8.00;99.90
23744;DHT22;12052;53.478;10.182;2024-03-02T02:09:32;8.00;99.90
23744;DHT22;12052;53.478;10.182;2024-03-02T02:11:57;8.00;99.90
23744;DHT22;12052;53.478;10.182;2024-03-02T02:14:24;8.00;99.90
23744;DHT22;12052;53.478;10.182;2024-03-02T02:16:49;7.90;99.90
23744;DHT22;12052;53.478;10.182;2024-03-02T02:19:15;8.00;99.90
23744;DHT22;12052;53.478;10.182;2024-03-02T02:21:44;7.90;99.90
23744;DHT22;12052;53.478;10.182;2024-03-02T02:24:09;7.90;99.90
23744;DHT22;12052;53.478;10.182;2024-03-02T02:26:35;7.90;99.90
23744;DHT22;12052;53.478;10.182;2024-03-02T02:29:01;7.90;99.90
23744;DHT22;12052;53.478;10.182;2024-03-02T02:31:26;7.90;99.90
23744;DHT22;12052;53.478;10.182;2024-03-02T02:33:52;7.90;99.90
23744;DHT22;12052;53.478;10.182;2024-03-02T02:36:18;7.80;99.90
23744;DHT22;12052;53.478;10.182;2024-03-02T02:38:46;7.90;99.90
23744;DHT22;12052;53.478;10.182;2024-03-02T02:41:13;7.90;99.90
23744;DHT22;12052;53.478;10.182;2024-03-02T02:43:38;7.80;99.90
23744;DHT22;12052;53.478;10.182;2024-03-02T02:46:05;7.80;99.90
23744;DHT22;12052;53.478;10.182;2024-03-02T02:48:31;7.80;99.90
23744;DHT22;12052;53.478;10.182;2024-03-02T02:50:56;7.80;99.90
23744;DHT22;12052;53.478;10.182;2024-03-02T02:53:22;7.80;99.90
23744;DHT22;12052;53.478;10.182;2024-03-02T02:55:48;7.70;99.90
23744;DHT22;12052;53.478;10.182;2024-03-02T02:58:13;7.70;99.90
23744;DHT22;12052;53.478;10.182;2024-03-02T03:00:40;7.70;99.90
23744;DHT22;12052;53.478;10.182;2024-03-02T03:03:06;7.70;99.90
23744;DHT22;12052;53.478;10.182;2024-03-02T03:05:31;7.70;99.90
23744;DHT22;12052;53.478;10.182;2024-03-02T03:07:57;7.60;99.90
23744;DHT22;12052;53.478;10.182;2024-03-02T03:10:22;7.60;99.90
23744;DHT22;12052;53.478;10.182;2024-03-02T03:12:51;7.60;99.90
23744;DHT22;12052;53.478;10.182;2024-03-02T03:15:17;7.60;99.90
23744;DHT22;12052;53.478;10.182;2024-03-02T03:17:42;7.60;99.90
23744;DHT22;12052;53.478;10.182;2024-03-02T03:20:08;7.50;99.90
23744;DHT22;12052;53.478;10.182;2024-03-02T03:22:38;7.60;99.90
23744;DHT22;12052;53.478;10.182;2024-03-02T03:25:05;7.60;99.90
23744;DHT22;12052;53.478;10.182;2024-03-02T03:27:30;7.60;99.90
23744;DHT22;12052;53.478;10.182;2024-03-02T03:29:56;7.60;99.90
23744;DHT22;12052;53.478;10.182;2024-03-02T03:32:22;7.60;99.90
23744;DHT22;12052;53.478;10.182;2024-03-02T03:34:47;7.60;99.90
23744;DHT22;12052;53.478;10.182;2024-03-02T03:37:14;7.60;99.90
23744;DHT22;12052;53.478;10.182;2024-03-02T03:39:40;7.60;99.90
23744;DHT22;12052;53.478;10.182;2024-03-02T03:42:06;7.60;99.90
23744;DHT22;12052;53.478;10.182;2024-03-02T03:44:32;7.60;99.90
23744;DHT22;12052;53.478;10.182;2024-03-02T03:46:58;7.60;99.90
23744;DHT22;12052;53.478;10.182;2024-03-02T03:49:23;7.60;99.90
23744;DHT22;12052;53.478;10.182;2024-03-02T03:51:49;7.50;99.90
23744;DHT22;12052;53.478;10.182;2024-03-02T03:54:15;7.50;99.90
23744;DHT22;12052;53.478;10.182;2024-03-02T03:56:40;7.50;99.90
23744;DHT22;12052;53.478;10.182;2024-03-02T03:59:06;7.50;99.90
23744;DHT22;12052;53.478;10.182;2024-03-02T04:01:31;7.50;99.90
23744;DHT22;12052;53.478;10.182;2024-03-02T04:03:57;7.50;99.90
23744;DHT22;12052;53.478;10.182;2024-03-02T04:06:23;7.50;99.90
23744;DHT22;12052;53.478;10.182;2024-03-02T04:08:49;7.50;99.90
23744;DHT22;12052;53.478;10.182;2024-03-02T04:11:14;7.50;99.90
23744;DHT22;12052;53.478;10.182;2024-03-02T04:13:40;7.50;99.90
23744;DHT22;12052;53.478;10.182;2024-03-02T04:16:06;7.50;99.90
23744;DHT22;12052;53.478;10.182;2024-03-02T04:18:31;7.50;99.90
23744;DHT22;12052;53.478;10.182;2024-03-02T04:21:00;7.50;99.90
23744;DHT22;12052;53.478;10.182;2024-03-02T04:23:29;7.50;99.90
23744;DHT22;12052;53.478;10.182;2024-03-02T04:25:54;7.50;99.90
23744;DHT22;12052;53.478;10.182;2024-03-02T04:28:20;7.60;99.90
23744;DHT22;12052;53.478;10.182;2024-03-02T04:30:45;7.50;99.90
23744;DHT22;12052;53.478;10.182;2024-03-02T04:33:11;7.60;99.90
23744;DHT22;12052;53.478;10.182;2024-03-02T04:35:37;7.50;99.90
23744;DHT22;12052;53.478;10.182;2024-03-02T04:38:02;7.50;99.90
23744;DHT22;12052;53.478;10.182;2024-03-02T04:40:28;7.60;99.90
23744;DHT22;12052;53.478;10.182;2024-03-02T04:42:54;7.50;99.90
23744;DHT22;12052;53.478;10.182;2024-03-02T04:45:19;7.50;99.90
23744;DHT22;12052;53.478;10.182;2024-03-02T04:47:45;7.50;99.90
23744;DHT22;12052;53.478;10.182;2024-03-02T04:50:10;7.50;99.90
23744;DHT22;12052;53.478;10.182;2024-03-02T04:52:36;7.50;99.90
23744;DHT22;12052;53.478;10.182;2024-03-02T04:55:02;7.60;99.90
23744;DHT22;12052;53.478;10.182;2024-03-02T04:57:46;7.50;99.90
23744;DHT22;12052;53.478;10.182;2024-03-02T05:00:13;7.50;99.90
23744;DHT22;12052;53.478;10.182;2024-03-02T05:02:39;7.40;99.90
23744;DHT22;12052;53.478;10.182;2024-03-02T05:05:04;7.40;99.90
23744;DHT22;12052;53.478;10.182;2024-03-02T05:07:30;7.40;99.90
23744;DHT22;12052;53.478;10.182;2024-03-02T05:09:55;7.40;99.90
23744;DHT22;12052;53.478;10.182;2024-03-02T05:12:21;7.40;99.90
23744;DHT22;12052;53.478;10.182;2024-03-02T05:15:19;7.30;99.90
23744;DHT22;12052;53.478;10.182;2024-03-02T05:17:44;7.40;99.90
23744;DHT22;12052;53.478;10.182;2024-03-02T05:20:10;7.30;99.90
23744;DHT22;12052;53.478;10.182;2024-03-02T05:22:37;7.30;99.90
23744;DHT22;12052;53.478;10.182;2024-03-02T05:25:03;7.30;99.90
23744;DHT22;12052;53.478;10.182;2024-03-02T05:27:29;7.30;99.90
23744;DHT22;12052;53.478;10.182;2024-03-02T05:29:55;7.30;99.90
23744;DHT22;12052;53.478;10.182;2024-03-02T05:32:21;7.30;99.90
23744;DHT22;12052;53.478;10.182;2024-03-02T05:34:47;7.30;99.90
23744;DHT22;12052;53.478;10.182;2024-03-02T05:37:12;7.20;99.90
23744;DHT22;12052;53.478;10.182;2024-03-02T05:39:38;7.20;99.90
23744;DHT22;12052;53.478;10.182;2024-03-02T05:42:04;7.30;99.90
23744;DHT22;12052;53.478;10.182;2024-03-02T05:44:29;7.20;99.90
23744;DHT22;12052;53.478;10.182;2024-03-02T05:46:55;7.20;99.90
23744;DHT22;12052;53.478;10.182;2024-03-02T05:49:21;7.20;99.90
23744;DHT22;12052;53.478;10.182;2024-03-02T05:51:47;7.20;99.90
23744;DHT22;12052;53.478;10.182;2024-03-02T05:54:12;7.20;99.90
23744;DHT22;12052;53.478;10.182;2024-03-02T05:56:38;7.20;99.90
23744;DHT22;12052;53.478;10.182;2024-03-02T05:59:04;7.20;99.90
23744;DHT22;12052;53.478;10.182;2024-03-02T06:01:47;7.20;99.90
23744;DHT22;12052;53.478;10.182;2024-03-02T06:04:16;7.30;99.90
23744;DHT22;12052;53.478;10.182;2024-03-02T06:06:42;7.20;99.90
23744;DHT22;12052;53.478;10.182;2024-03-02T06:09:08;7.20;99.90
23744;DHT22;12052;53.478;10.182;2024-03-02T06:11:34;7.20;99.90
23744;DHT22;12052;53.478;10.182;2024-03-02T06:14:00;7.20;99.90
23744;DHT22;12052;53.478;10.182;2024-03-02T06:16:26;7.20;99.90
23744;DHT22;12052;53.478;10.182;2024-03-02T06:18:52;7.20;99.90
23744;DHT22;12052;53.478;10.182;2024-03-02T06:21:19;7.20;99.90
23744;DHT22;12052;53.478;10.182;2024-03-02T06:23:45;7.20;99.90
23744;DHT22;12052;53.478;10.182;2024-03-02T06:26:11;7.20;99.90
23744;DHT22;12052;53.478;10.182;2024-03-02T06:28:37;7.20;99.90
23744;DHT22;12052;53.478;10.182;2024-03-02T06:31:03;7.20;99.90
23744;DHT22;12052;53.478;10.182;2024-03-02T06:33:29;7.20;99.90
23744;DHT22;12052;53.478;10.182;2024-03-02T06:35:55;7.20;99.90
23744;DHT22;12052;53.478;10.182;2024-03-02T06:38:20;7.20;99.90
23744;DHT22;12052;53.478;10.182;2024-03-02T06:40:46;7.20;99.90
23744;DHT22;12052;53.478;10.182;2024-03-02T06:43:11;7.20;99.90
23744;DHT22;12052;53.478;10.182;2024-03-02T06:45:37;7.20;99.90
23744;DHT22;12052;53.478;10.182;2024-03-02T06:48:03;7.20;99.90
23744;DHT22;12052;53.478;10.182;2024-03-02T06:50:29;7.20;99.90
23744;DHT22;12052;53.478;10.182;2024-03-02T06:52:55;7.20;99.90
23744;DHT22;12052;53.478;10.182;2024-03-02T06:55:21;7.10;99.90
23744;DHT22;12052;53.478;10.182;2024-03-02T06:57:47;7.20;99.90
23744;DHT22;12052;53.478;10.182;2024-03-02T07:00:13;7.20;99.90
23744;DHT22;12052;53.478;10.182;2024-03-02T07:02:39;7.20;99.90
23744;DHT22;12052;53.478;10.182;2024-03-02T07:05:07;7.20;99.90
23744;DHT22;12052;53.478;10.182;2024-03-02T07:07:33;7.30;99.90
23744;DHT22;12052;53.478;10.182;2024-03-02T07:10:00;7.20;99.90
23744;DHT22;12052;53.478;10.182;2024-03-02T07:12:26;7.20;99.90
23744;DHT22;12052;53.478;10.182;2024-03-02T07:14:52;7.30;99.90
23744;DHT22;12052;53.478;10.182;2024-03-02T07:17:32;7.30;99.90
23744;DHT22;12052;53.478;10.182;2024-03-02T07:19:58;7.30;99.90
23744;DHT22;12052;53.478;10.182;2024-03-02T07:22:24;7.30;99.90
23744;DHT22;12052;53.478;10.182;2024-03-02T07:24:50;7.40;99.90
23744;DHT22;12052;53.478;10.182;2024-03-02T07:27:16;7.40;99.90
23744;DHT22;12052;53.478;10.182;2024-03-02T07:29:43;7.40;99.90
23744;DHT22;12052;53.478;10.182;2024-03-02T07:32:09;7.50;99.90
23744;DHT22;12052;53.478;10.182;2024-03-02T07:34:35;7.60;99.90
23744;DHT22;12052;53.478;10.182;2024-03-02T07:37:01;7.60;99.90
23744;DHT22;12052;53.478;10.182;2024-03-02T07:39:28;7.70;99.90
23744;DHT22;12052;53.478;10.182;2024-03-02T07:41:55;7.70;99.90
23744;DHT22;12052;53.478;10.182;2024-03-02T07:44:20;7.80;99.90
23744;DHT22;12052;53.478;10.182;2024-03-02T07:46:47;7.90;99.90
23744;DHT22;12052;53.478;10.182;2024-03-02T07:49:13;7.90;99.90
23744;DHT22;12052;53.478;10.182;2024-03-02T07:51:39;7.80;99.90
23744;DHT22;12052;53.478;10.182;2024-03-02T07:54:05;7.90;99.90
23744;DHT22;12052;53.478;10.182;2024-03-02T07:56:31;8.00;99.90
23744;DHT22;12052;53.478;10.182;2024-03-02T07:58:57;8.10;99.90
23744;DHT22;12052;53.478;10.182;2024-03-02T08:01:27;8.10;99.90
23744;DHT22;12052;53.478;10.182;2024-03-02T08:03:53;8.10;99.90
23744;DHT22;12052;53.478;10.182;2024-03-02T08:06:18;8.20;99.90
23744;DHT22;12052;53.478;10.182;2024-03-02T08:08:47;8.20;99.90
23744;DHT22;12052;53.478;10.182;2024-03-02T08:11:12;8.30;99.90
23744;DHT22;12052;53.478;10.182;2024-03-02T08:13:38;8.30;99.90
23744;DHT22;12052;53.478;10.182;2024-03-02T08:16:04;8.40;99.90
23744;DHT22;12052;53.478;10.182;2024-03-02T08:18:32;8.50;99.90
23744;DHT22;12052;53.478;10.182;2024-03-02T08:20:58;8.50;99.90
23744;DHT22;12052;53.478;10.182;2024-03-02T08:23:23;8.50;99.90
23744;DHT22;12052;53.478;10.182;2024-03-02T08:25:49;8.50;99.90
23744;DHT22;12052;53.478;10.182;2024-03-02T08:28:15;8.50;99.90
23744;DHT22;12052;53.478;10.182;2024-03-02T08:30:40;8.50;99.90
23744;DHT22;12052;53.478;10.182;2024-03-02T08:33:06;8.50;99.90
23744;DHT22;12052;53.478;10.182;2024-03-02T08:35:31;8.60;99.90
23744;DHT22;12052;53.478;10.182;2024-03-02T08:38:02;8.60;99.90
23744;DHT22;12052;53.478;10.182;2024-03-02T08:40:28;8.70;99.90
23744;DHT22;12052;53.478;10.182;2024-03-02T08:42:54;8.70;99.90
23744;DHT22;12052;53.478;10.182;2024-03-02T08:45:19;8.70;99.90
23744;DHT22;12052;53.478;10.182;2024-03-02T08:47:46;8.80;99.90
23744;DHT22;12052;53.478;10.182;2024-03-02T08:50:12;8.80;99.90
23744;DHT22;12052;53.478;10.182;2024-03-02T08:52:37;8.90;99.90
23744;DHT22;12052;53.478;10.182;2024-03-02T08:55:03;9.00;99.90
23744;DHT22;12052;53.478;10.182;2024-03-02T08:57:29;9.00;99.90
23744;DHT22;12052;53.478;10.182;2024-03-02T08:59:54;9.10;99.90
23744;DHT22;12052;53.478;10.182;2024-03-02T09:02:20;9.10;99.90
23744;DHT22;12052;53.478;10.182;2024-03-02T09:04:45;9.10;99.90
23744;DHT22;12052;53.478;10.182;2024-03-02T09:07:11;9.10;99.90
23744;DHT22;12052;53.478;10.182;2024-03-02T09:09:37;9.20;99.90
23744;DHT22;12052;53.478;10.182;2024-03-02T09:12:05;9.20;99.90
23744;DHT22;12052;53.478;10.182;2024-03-02T09:14:31;9.20;99.90
23744;DHT22;12052;53.478;10.182;2024-03-02T09:16:56;9.40;99.90
23744;DHT22;12052;53.478;10.182;2024-03-02T09:19:22;9.30;99.90
23744;DHT22;12052;53.478;10.182;2024-03-02T09:21:48;9.50;99.90
23744;DHT22;12052;53.478;10.182;2024-03-02T09:24:13;9.70;99.90
23744;DHT22;12052;53.478;10.182;2024-03-02T09:26:39;9.90;99.90
23744;DHT22;12052;53.478;10.182;2024-03-02T09:29:04;10.20;99.90
23744;DHT22;12052;53.478;10.182;2024-03-02T09:31:30;10.40;99.90
23744;DHT22;12052;53.478;10.182;2024-03-02T09:33:55;10.60;99.90
23744;DHT22;12052;53.478;10.182;2024-03-02T09:36:22;10.80;99.90
23744;DHT22;12052;53.478;10.182;2024-03-02T09:38:48;11.00;99.90
23744;DHT22;12052;53.478;10.182;2024-03-02T09:41:14;11.00;99.90
23744;DHT22;12052;53.478;10.182;2024-03-02T09:43:40;11.20;99.90
23744;DHT22;12052;53.478;10.182;2024-03-02T09:46:09;11.20;99.90
23744;DHT22;12052;53.478;10.182;2024-03-02T09:48:35;11.30;99.90
23744;DHT22;12052;53.478;10.182;2024-03-02T09:51:01;11.20;99.90
23744;DHT22;12052;53.478;10.182;2024-03-02T09:53:33;11.40;99.90
23744;DHT22;12052;53.478;10.182;2024-03-02T09:56:02;11.80;99.90
23744;DHT22;12052;53.478;10.182;2024-03-02T09:58:28;11.70;99.90
23744;DHT22;12052;53.478;10.182;2024-03-02T10:00:54;11.90;99.90
23744;DHT22;12052;53.478;10.182;2024-03-02T10:03:20;12.20;99.90
23744;DHT22;12052;53.478;10.182;2024-03-02T10:05:46;12.30;99.90
23744;DHT22;12052;53.478;10.182;2024-03-02T10:08:12;12.60;99.90
23744;DHT22;12052;53.478;10.182;2024-03-02T10:10:39;12.70;99.90
23744;DHT22;12052;53.478;10.182;2024-03-02T10:13:10;12.80;99.90
23744;DHT22;12052;53.478;10.182;2024-03-02T10:15:37;12.60;99.90
23744;DHT22;12052;53.478;10.182;2024-03-02T10:18:03;12.50;99.90
23744;DHT22;12052;53.478;10.182;2024-03-02T10:20:29;12.50;99.90
23744;DHT22;12052;53.478;10.182;2024-03-02T10:22:56;12.50;99.90
23744;DHT22;12052;53.478;10.182;2024-03-02T10:25:32;12.80;99.90
23744;DHT22;12052;53.478;10.182;2024-03-02T10:27:59;12.90;99.90
23744;DHT22;12052;53.478;10.182;2024-03-02T10:30:27;12.80;99.90
23744;DHT22;12052;53.478;10.182;2024-03-02T10:32:54;13.00;99.90
23744;DHT22;12052;53.478;10.182;2024-03-02T10:35:21;13.10;99.90
23744;DHT22;12052;53.478;10.182;2024-03-02T10:37:48;13.00;99.90
23744;DHT22;12052;53.478;10.182;2024-03-02T10:40:14;13.00;99.90
23744;DHT22;12052;53.478;10.182;2024-03-02T10:42:41;12.80;99.90
23744;DHT22;12052;53.478;10.182;2024-03-02T10:45:10;12.80;99.90
23744;DHT22;12052;53.478;10.182;2024-03-02T10:47:38;12.80;99.90
23744;DHT22;12052;53.478;10.182;2024-03-02T10:50:07;12.80;99.90
23744;DHT22;12052;53.478;10.182;2024-03-02T10:52:37;12.80;99.90
23744;DHT22;12052;53.478;10.182;2024-03-02T10:55:03;12.80;99.90
23744;DHT22;12052;53.478;10.182;2024-03-02T10:57:41;12.80;99.90
23744;DHT22;12052;53.478;10.182;2024-03-02T11:00:11;12.80;99.90
23744;DHT22;12052;53.478;10.182;2024-03-02T11:02:50;12.80;99.90
23744;DHT22;12052;53.478;10.182;2024-03-02T11:05:37;12.80;99.90
23744;DHT22;12052;53.478;10.182;2024-03-02T11:08:09;12.80;99.90
23744;DHT22;12052;53.478;10.182;2024-03-02T11:10:43;12.90;99.90
23744;DHT22;12052;53.478;10.182;2024-03-02T11:13:12;12.90;99.90
23744;DHT22;12052;53.478;10.182;2024-03-02T11:15:40;12.90;99.90
23744;DHT22;12052;53.478;10.182;2024-03-02T11:18:06;13.00;99.90
23744;DHT22;12052;53.478;10.182;2024-03-02T11:20:36;13.20;99.90
23744;DHT22;12052;53.478;10.182;2024-03-02T11:23:08;13.00;99.90
23744;DHT22;12052;53.478;10.182;2024-03-02T11:25:34;13.00;99.90
23744;DHT22;12052;53.478;10.182;2024-03-02T11:28:06;13.10;99.90
23744;DHT22;12052;53.478;10.182;2024-03-02T11:33:08;12.90;99.90
23744;DHT22;12052;53.478;10.182;2024-03-02T11:35:37;12.90;99.90
23744;DHT22;12052;53.478;10.182;2024-03-02T11:38:03;12.90;99.90
23744;DHT22;12052;53.478;10.182;2024-03-02T11:40:30;12.90;99.90
23744;DHT22;12052;53.478;10.182;2024-03-02T11:43:00;12.80;99.90
23744;DHT22;12052;53.478;10.182;2024-03-02T11:45:27;12.80;99.90
23744;DHT22;12052;53.478;10.182;2024-03-02T11:47:59;12.80;99.90
23744;DHT22;12052;53.478;10.182;2024-03-02T11:50:34;12.80;99.90
23744;DHT22;12052;53.478;10.182;2024-03-02T11:53:00;12.80;99.90
23744;DHT22;12052;53.478;10.182;2024-03-02T11:55:37;12.70;99.90
23744;DHT22;12052;53.478;10.182;2024-03-02T11:58:06;12.70;99.90
23744;DHT22;12052;53.478;10.182;2024-03-02T12:00:33;12.60;99.90
23744;DHT22;12052;53.478;10.182;2024-03-02T12:03:08;12.70;99.90
23744;DHT22;12052;53.478;10.182;2024-03-02T12:05:34;12.70;99.90
23744;DHT22;12052;53.478;10.182;2024-03-02T12:08:02;12.70;99.90
23744;DHT22;12052;53.478;10.182;2024-03-02T12:10:30;12.70;99.90
23744;DHT22;12052;53.478;10.182;2024-03-02T12:13:00;12.60;99.90
23744;DHT22;12052;53.478;10.182;2024-03-02T12:15:28;12.60;99.90
23744;DHT22;12052;53.478;10.182;2024-03-02T12:17:55;12.70;99.90
23744;DHT22;12052;53.478;10.182;2024-03-02T12:20:20;12.60;99.90
23744;DHT22;12052;53.478;10.182;2024-03-02T12:22:46;12.70;99.90
23744;DHT22;12052;53.478;10.182;2024-03-02T12:25:13;12.70;99.90
23744;DHT22;12052;53.478;10.182;2024-03-02T12:27:40;12.60;99.90
23744;DHT22;12052;53.478;10.182;2024-03-02T12:30:06;12.60;99.90
23744;DHT22;12052;53.478;10.182;2024-03-02T12:32:37;12.60;99.90
23744;DHT22;12052;53.478;10.182;2024-03-02T12:35:04;12.60;99.90
23744;DHT22;12052;53.478;10.182;2024-03-02T12:37:30;12.60;99.90
23744;DHT22;12052;53.478;10.182;2024-03-02T12:39:56;12.70;99.90
23744;DHT22;12052;53.478;10.182;2024-03-02T12:42:23;12.80;99.90
23744;DHT22;12052;53.478;10.182;2024-03-02T12:44:48;12.80;99.90
23744;DHT22;12052;53.478;10.182;2024-03-02T12:47:14;12.90;99.90
23744;DHT22;12052;53.478;10.182;2024-03-02T12:49:40;12.90;99.90
23744;DHT22;12052;53.478;10.182;2024-03-02T12:52:06;12.80;99.90
23744;DHT22;12052;53.478;10.182;2024-03-02T12:54:32;12.90;99.90
23744;DHT22;12052;53.478;10.182;2024-03-02T12:56:58;12.90;99.90
23744;DHT22;12052;53.478;10.182;2024-03-02T12:59:24;12.90;99.90
23744;DHT22;12052;53.478;10.182;2024-03-02T13:01:55;12.90;99.90
23744;DHT22;12052;53.478;10.182;2024-03-02T13:04:25;12.90;99.90
23744;DHT22;12052;53.478;10.182;2024-03-02T13:06:52;12.90;99.90
23744;DHT22;12052;53.478;10.182;2024-03-02T13:09:18;12.90;99.90
23744;DHT22;12052;53.478;10.182;2024-03-02T13:11:43;12.90;99.90
23744;DHT22;12052;53.478;10.182;2024-03-02T13:14:10;13.00;99.90
23744;DHT22;12052;53.478;10.182;2024-03-02T13:16:40;13.00;99.90
23744;DHT22;12052;53.478;10.182;2024-03-02T13:19:11;13.10;99.90
23744;DHT22;12052;53.478;10.182;2024-03-02T13:21:37;13.00;99.90
23744;DHT22;12052;53.478;10.182;2024-03-02T13:24:04;13.00;99.90
23744;DHT22;12052;53.478;10.182;2024-03-02T13:26:30;13.00;99.90
23744;DHT22;12052;53.478;10.182;2024-03-02T13:28:56;13.00;99.90
23744;DHT22;12052;53.478;10.182;2024-03-02T13:31:21;13.00;99.90
23744;DHT22;12052;53.478;10.182;2024-03-02T13:33:47;13.00;99.90
23744;DHT22;12052;53.478;10.182;2024-03-02T13:36:13;13.00;99.90
23744;DHT22;12052;53.478;10.182;2024-03-02T13:38:39;13.00;99.90
23744;DHT22;12052;53.478;10.182;2024-03-02T13:41:04;13.00;99.90
23744;DHT22;12052;53.478;10.182;2024-03-02T13:43:30;13.00;99.90
23744;DHT22;12052;53.478;10.182;2024-03-02T13:46:00;13.00;99.90
23744;DHT22;12052;53.478;10.182;2024-03-02T13:48:26;12.90;99.90
23744;DHT22;12052;53.478;10.182;2024-03-02T13:50:52;12.90;99.90
23744;DHT22;12052;53.478;10.182;2024-03-02T13:53:20;12.80;99.90
23744;DHT22;12052;53.478;10.182;2024-03-02T13:55:46;12.80;99.90
23744;DHT22;12052;53.478;10.182;2024-03-02T13:58:11;12.80;99.90
23744;DHT22;12052;53.478;10.182;2024-03-02T14:00:38;12.80;99.90
23744;DHT22;12052;53.478;10.182;2024-03-02T14:03:05;12.80;99.90
23744;DHT22;12052;53.478;10.182;2024-03-02T14:05:31;12.80;99.90
23744;DHT22;12052;53.478;10.182;2024-03-02T14:07:57;12.90;99.90
23744;DHT22;12052;53.478;10.182;2024-03-02T14:10:24;12.90;99.90
23744;DHT22;12052;53.478;10.182;2024-03-02T14:12:50;13.00;99.90
23744;DHT22;12052;53.478;10.182;2024-03-02T14:15:15;13.00;99.90
23744;DHT22;12052;53.478;10.182;2024-03-02T14:17:41;13.10;99.90
23744;DHT22;12052;53.478;10.182;2024-03-02T14:20:08;13.20;99.90
23744;DHT22;12052;53.478;10.182;2024-03-02T14:22:35;13.20;99.90
23744;DHT22;12052;53.478;10.182;2024-03-02T14:25:03;13.30;99.90
23744;DHT22;12052;53.478;10.182;2024-03-02T14:27:28;13.40;99.90
23744;DHT22;12052;53.478;10.182;2024-03-02T14:29:54;13.60;99.90
23744;DHT22;12052;53.478;10.182;2024-03-02T14:32:20;13.70;99.90
23744;DHT22;12052;53.478;10.182;2024-03-02T14:34:45;13.90;99.90
23744;DHT22;12052;53.478;10.182;2024-03-02T14:37:13;13.90;99.90
23744;DHT22;12052;53.478;10.182;2024-03-02T14:39:39;13.90;99.90
23744;DHT22;12052;53.478;10.182;2024-03-02T14:42:04;13.90;99.90
23744;DHT22;12052;53.478;10.182;2024-03-02T14:44:30;13.90;99.90
23744;DHT22;12052;53.478;10.182;2024-03-02T14:46:56;13.90;99.90
23744;DHT22;12052;53.478;10.182;2024-03-02T14:49:24;13.90;99.90
23744;DHT22;12052;53.478;10.182;2024-03-02T14:51:50;13.90;99.90
23744;DHT22;12052;53.478;10.182;2024-03-02T14:54:15;13.80;99.90
23744;DHT22;12052;53.478;10.182;2024-03-02T14:56:41;13.70;99.90
23744;DHT22;12052;53.478;10.182;2024-03-02T14:59:06;13.70;99.90
23744;DHT22;12052;53.478;10.182;2024-03-02T15:01:32;13.60;99.90
23744;DHT22;12052;53.478;10.182;2024-03-02T15:03:58;13.60;99.90
23744;DHT22;12052;53.478;10.182;2024-03-02T15:06:24;13.50;99.90
23744;DHT22;12052;53.478;10.182;2024-03-02T15:08:49;13.50;99.90
23744;DHT22;12052;53.478;10.182;2024-03-02T15:11:15;13.40;99.90
23744;DHT22;12052;53.478;10.182;2024-03-02T15:13:40;13.30;99.90
23744;DHT22;12052;53.478;10.182;2024-03-02T15:16:07;13.20;99.90
23744;DHT22;12052;53.478;10.182;2024-03-02T15:18:32;13.20;99.90
23744;DHT22;12052;53.478;10.182;2024-03-02T15:20:58;13.10;99.90
23744;DHT22;12052;53.478;10.182;2024-03-02T15:23:23;13.00;99.90
23744;DHT22;12052;53.478;10.182;2024-03-02T15:25:49;12.90;99.90